sensor_id;sensor_type;location;lat;lon;timestamp;P1;durP1;ratioP1;P2;durP2;ratioP2
7231;SDS011;3657;49.630;11.018;2022-07-29T00:02:17;4.90;;;4.57;;
7231;SDS011;3657;49.630;11.018;2022-07-29T00:04:43;3.93;;;3.73;;
7231;SDS011;3657;49.630;11.018;2022-07-29T00:07:10;4.40;;;4.30;;
7231;SDS011;3657;49.630;11.018;2022-07-29T00:09:37;4.57;;;4.37;;
7231;SDS011;3657;49.630;11.018;2022-07-29T00:12:04;4.50;;;4.40;;
7231;SDS011;3657;49.630;11.018;2022-07-29T00:14:32;4.20;;;4.10;;
7231;SDS011;3657;49.630;11.018;2022-07-29T00:16:59;3.93;;;3.83;;
7231;SDS011;3657;49.630;11.018;2022-07-29T00:19:26;5.47;;;5.07;;
7231;SDS011;3657;49.630;11.018;2022-07-29T00:21:52;5.30;;;5.20;;
7231;SDS011;3657;49.630;11.018;2022-07-29T00:24:19;4.60;;;4.50;;
7231;SDS011;3657;49.630;11.018;2022-07-29T00:26:46;4.33;;;4.13;;
7231;SDS011;3657;49.630;11.018;2022-07-29T00:29:12;4.37;;;4.20;;
7231;SDS011;3657;49.630;11.018;2022-07-29T00:31:40;4.10;;;3.93;;
7231;SDS011;3657;49.630;11.018;2022-07-29T00:34:07;4.30;;;4.10;;
7231;SDS011;3657;49.630;11.018;2022-07-29T00:36:54;4.13;;;4.03;;
7231;SDS011;3657;49.630;11.018;2022-07-29T00:39:20;5.40;;;5.10;;
7231;SDS011;3657;49.630;11.018;2022-07-29T00:41:46;4.63;;;4.43;;
7231;SDS011;3657;49.630;11.018;2022-07-29T00:44:13;5.00;;;4.67;;
7231;SDS011;3657;49.630;11.018;2022-07-29T00:46:42;4.93;;;4.73;;
7231;SDS011;3657;49.630;11.018;2022-07-29T00:49:08;4.40;;;4.30;;
7231;SDS011;3657;49.630;11.018;2022-07-29T00:51:35;4.67;;;4.57;;
7231;SDS011;3657;49.630;11.018;2022-07-29T00:54:03;5.43;;;5.13;;
7231;SDS011;3657;49.630;11.018;2022-07-29T00:56:31;4.40;;;4.20;;
7231;SDS011;3657;49.630;11.018;2022-07-29T00:58:58;5.67;;;5.50;;
7231;SDS011;3657;49.630;11.018;2022-07-29T01:01:26;4.97;;;4.77;;
7231;SDS011;3657;49.630;11.018;2022-07-29T01:03:54;4.83;;;4.43;;
7231;SDS011;3657;49.630;11.018;2022-07-29T01:06:21;4.77;;;4.57;;
7231;SDS011;3657;49.630;11.018;2022-07-29T01:08:48;5.50;;;5.00;;
7231;SDS011;3657;49.630;11.018;2022-07-29T01:11:16;5.97;;;5.67;;
7231;SDS011;3657;49.630;11.018;2022-07-29T01:13:43;5.67;;;5.23;;
7231;SDS011;3657;49.630;11.018;2022-07-29T01:16:13;5.13;;;4.80;;
7231;SDS011;3657;49.630;11.018;2022-07-29T01:19:00;4.30;;;4.10;;
7231;SDS011;3657;49.630;11.018;2022-07-29T01:21:50;4.77;;;4.37;;
7231;SDS011;3657;49.630;11.018;2022-07-29T01:24:23;4.63;;;4.37;;
7231;SDS011;3657;49.630;11.018;2022-07-29T01:27:15;4.47;;;4.37;;
7231;SDS011;3657;49.630;11.018;2022-07-29T01:29:54;5.07;;;4.90;;
7231;SDS011;3657;49.630;11.018;2022-07-29T01:32:24;4.70;;;4.60;;
7231;SDS011;3657;49.630;11.018;2022-07-29T01:34:54;4.13;;;4.03;;
7231;SDS011;3657;49.630;11.018;2022-07-29T01:37:26;4.57;;;4.37;;
7231;SDS011;3657;49.630;11.018;2022-07-29T01:39:56;4.77;;;4.67;;
7231;SDS011;3657;49.630;11.018;2022-07-29T01:42:26;4.70;;;4.60;;
7231;SDS011;3657;49.630;11.018;2022-07-29T01:44:59;4.47;;;4.37;;
7231;SDS011;3657;49.630;11.018;2022-07-29T01:47:32;4.53;;;4.43;;
7231;SDS011;3657;49.630;11.018;2022-07-29T01:50:03;4.77;;;4.67;;
7231;SDS011;3657;49.630;11.018;2022-07-29T01:52:34;4.73;;;4.53;;
7231;SDS011;3657;49.630;11.018;2022-07-29T01:55:06;4.33;;;4.23;;
7231;SDS011;3657;49.630;11.018;2022-07-29T01:57:38;4.23;;;4.13;;
7231;SDS011;3657;49.630;11.018;2022-07-29T02:00:09;4.87;;;4.77;;
7231;SDS011;3657;49.630;11.018;2022-07-29T02:02:36;4.97;;;4.77;;
7231;SDS011;3657;49.630;11.018;2022-07-29T02:05:07;4.53;;;4.43;;
7231;SDS011;3657;49.630;11.018;2022-07-29T02:07:37;4.10;;;4.00;;
7231;SDS011;3657;49.630;11.018;2022-07-29T02:10:05;3.83;;;3.73;;
7231;SDS011;3657;49.630;11.018;2022-07-29T02:12:34;4.80;;;4.70;;
7231;SDS011;3657;49.630;11.018;2022-07-29T02:15:03;4.23;;;4.13;;
7231;SDS011;3657;49.630;11.018;2022-07-29T02:17:35;5.20;;;5.00;;
7231;SDS011;3657;49.630;11.018;2022-07-29T02:20:07;4.23;;;4.13;;
7231;SDS011;3657;49.630;11.018;2022-07-29T02:22:37;4.90;;;4.80;;
7231;SDS011;3657;49.630;11.018;2022-07-29T02:25:05;4.30;;;4.20;;
7231;SDS011;3657;49.630;11.018;2022-07-29T02:27:34;4.70;;;4.60;;
7231;SDS011;3657;49.630;11.018;2022-07-29T02:30:02;5.13;;;4.93;;
7231;SDS011;3657;49.630;11.018;2022-07-29T02:32:34;4.80;;;4.60;;
7231;SDS011;3657;49.630;11.018;2022-07-29T02:35:03;4.87;;;4.77;;
7231;SDS011;3657;49.630;11.018;2022-07-29T02:37:31;4.60;;;4.37;;
7231;SDS011;3657;49.630;11.018;2022-07-29T02:39:59;4.70;;;4.60;;
7231;SDS011;3657;49.630;11.018;2022-07-29T02:42:26;4.70;;;4.60;;
7231;SDS011;3657;49.630;11.018;2022-07-29T02:44:54;5.10;;;4.30;;
7231;SDS011;3657;49.630;11.018;2022-07-29T02:47:22;4.70;;;4.60;;
7231;SDS011;3657;49.630;11.018;2022-07-29T02:49:56;4.37;;;4.03;;
7231;SDS011;3657;49.630;11.018;2022-07-29T02:52:29;4.67;;;4.47;;
7231;SDS011;3657;49.630;11.018;2022-07-29T02:55:01;5.27;;;5.07;;
7231;SDS011;3657;49.630;11.018;2022-07-29T02:57:36;4.83;;;4.73;;
7231;SDS011;3657;49.630;11.018;2022-07-29T03:00:08;4.50;;;4.33;;
7231;SDS011;3657;49.630;11.018;2022-07-29T03:02:38;4.63;;;4.53;;
7231;SDS011;3657;49.630;11.018;2022-07-29T03:05:16;4.23;;;4.13;;
7231;SDS011;3657;49.630;11.018;2022-07-29T03:07:47;5.17;;;5.07;;
7231;SDS011;3657;49.630;11.018;2022-07-29T03:10:17;4.83;;;4.00;;
7231;SDS011;3657;49.630;11.018;2022-07-29T03:12:44;4.17;;;4.07;;
7231;SDS011;3657;49.630;11.018;2022-07-29T03:15:12;4.80;;;4.50;;
7231;SDS011;3657;49.630;11.018;2022-07-29T03:17:39;5.23;;;5.03;;
7231;SDS011;3657;49.630;11.018;2022-07-29T03:20:08;4.47;;;4.27;;
7231;SDS011;3657;49.630;11.018;2022-07-29T03:22:38;4.80;;;4.70;;
7231;SDS011;3657;49.630;11.018;2022-07-29T03:25:08;4.87;;;4.77;;
7231;SDS011;3657;49.630;11.018;2022-07-29T03:27:35;4.97;;;4.87;;
7231;SDS011;3657;49.630;11.018;2022-07-29T03:30:02;4.67;;;4.57;;
7231;SDS011;3657;49.630;11.018;2022-07-29T03:32:29;4.57;;;4.47;;
7231;SDS011;3657;49.630;11.018;2022-07-29T03:34:56;4.97;;;4.80;;
7231;SDS011;3657;49.630;11.018;2022-07-29T03:37:24;4.77;;;4.60;;
7231;SDS011;3657;49.630;11.018;2022-07-29T03:39:51;4.20;;;4.10;;
7231;SDS011;3657;49.630;11.018;2022-07-29T03:42:21;5.03;;;4.83;;
7231;SDS011;3657;49.630;11.018;2022-07-29T03:44:50;4.57;;;4.47;;
7231;SDS011;3657;49.630;11.018;2022-07-29T03:47:20;5.20;;;5.03;;
7231;SDS011;3657;49.630;11.018;2022-07-29T03:49:52;5.30;;;5.13;;
7231;SDS011;3657;49.630;11.018;2022-07-29T03:52:20;5.47;;;5.37;;
7231;SDS011;3657;49.630;11.018;2022-07-29T03:54:48;5.67;;;5.47;;
7231;SDS011;3657;49.630;11.018;2022-07-29T03:57:15;5.10;;;4.83;;
7231;SDS011;3657;49.630;11.018;2022-07-29T03:59:44;4.60;;;4.40;;
7231;SDS011;3657;49.630;11.018;2022-07-29T04:02:12;4.73;;;4.63;;
7231;SDS011;3657;49.630;11.018;2022-07-29T04:04:39;4.80;;;4.70;;
7231;SDS011;3657;49.630;11.018;2022-07-29T04:07:05;4.40;;;4.30;;
7231;SDS011;3657;49.630;11.018;2022-07-29T04:09:32;4.70;;;4.50;;
7231;SDS011;3657;49.630;11.018;2022-07-29T04:12:00;5.40;;;5.30;;
7231;SDS011;3657;49.630;11.018;2022-07-29T04:14:27;4.83;;;4.63;;
7231;SDS011;3657;49.630;11.018;2022-07-29T04:16:54;4.80;;;4.70;;
7231;SDS011;3657;49.630;11.018;2022-07-29T04:19:20;5.03;;;4.83;;
7231;SDS011;3657;49.630;11.018;2022-07-29T04:21:47;5.00;;;4.90;;
7231;SDS011;3657;49.630;11.018;2022-07-29T04:24:14;4.93;;;4.73;;
7231;SDS011;3657;49.630;11.018;2022-07-29T04:26:42;4.70;;;4.60;;
7231;SDS011;3657;49.630;11.018;2022-07-29T04:29:10;5.43;;;5.33;;
7231;SDS011;3657;49.630;11.018;2022-07-29T04:31:39;5.37;;;5.07;;
7231;SDS011;3657;49.630;11.018;2022-07-29T04:34:06;5.03;;;4.93;;
7231;SDS011;3657;49.630;11.018;2022-07-29T04:36:34;4.60;;;4.50;;
7231;SDS011;3657;49.630;11.018;2022-07-29T04:39:00;5.20;;;5.10;;
7231;SDS011;3657;49.630;11.018;2022-07-29T04:41:27;4.80;;;4.70;;
7231;SDS011;3657;49.630;11.018;2022-07-29T04:43:54;5.03;;;4.93;;
7231;SDS011;3657;49.630;11.018;2022-07-29T04:46:22;4.77;;;4.60;;
7231;SDS011;3657;49.630;11.018;2022-07-29T04:48:49;5.30;;;5.10;;
7231;SDS011;3657;49.630;11.018;2022-07-29T04:51:16;5.80;;;5.60;;
7231;SDS011;3657;49.630;11.018;2022-07-29T04:53:42;4.80;;;4.60;;
7231;SDS011;3657;49.630;11.018;2022-07-29T04:56:09;4.80;;;4.70;;
7231;SDS011;3657;49.630;11.018;2022-07-29T04:58:36;5.23;;;5.03;;
7231;SDS011;3657;49.630;11.018;2022-07-29T05:01:03;5.37;;;5.17;;
7231;SDS011;3657;49.630;11.018;2022-07-29T05:03:31;5.30;;;5.10;;
7231;SDS011;3657;49.630;11.018;2022-07-29T05:05:58;5.23;;;5.13;;
7231;SDS011;3657;49.630;11.018;2022-07-29T05:08:25;5.37;;;5.17;;
7231;SDS011;3657;49.630;11.018;2022-07-29T05:10:51;5.07;;;4.97;;
7231;SDS011;3657;49.630;11.018;2022-07-29T05:13:18;5.27;;;5.07;;
7231;SDS011;3657;49.630;11.018;2022-07-29T05:15:45;6.03;;;5.73;;
7231;SDS011;3657;49.630;11.018;2022-07-29T05:18:11;4.90;;;4.70;;
7231;SDS011;3657;49.630;11.018;2022-07-29T05:20:40;5.67;;;5.47;;
7231;SDS011;3657;49.630;11.018;2022-07-29T05:23:07;5.83;;;5.63;;
7231;SDS011;3657;49.630;11.018;2022-07-29T05:25:34;5.77;;;5.43;;
7231;SDS011;3657;49.630;11.018;2022-07-29T05:28:00;5.13;;;5.03;;
7231;SDS011;3657;49.630;11.018;2022-07-29T05:30:27;4.63;;;4.53;;
7231;SDS011;3657;49.630;11.018;2022-07-29T05:32:54;4.83;;;4.63;;
7231;SDS011;3657;49.630;11.018;2022-07-29T05:35:20;4.50;;;4.40;;
7231;SDS011;3657;49.630;11.018;2022-07-29T05:37:49;4.10;;;3.90;;
7231;SDS011;3657;49.630;11.018;2022-07-29T05:40:15;4.83;;;4.63;;
7231;SDS011;3657;49.630;11.018;2022-07-29T05:42:42;5.17;;;4.83;;
7231;SDS011;3657;49.630;11.018;2022-07-29T05:45:09;4.93;;;4.83;;
7231;SDS011;3657;49.630;11.018;2022-07-29T05:47:36;4.60;;;4.50;;
7231;SDS011;3657;49.630;11.018;2022-07-29T05:50:03;5.50;;;5.20;;
7231;SDS011;3657;49.630;11.018;2022-07-29T05:52:30;5.27;;;4.93;;
7231;SDS011;3657;49.630;11.018;2022-07-29T05:54:58;5.67;;;5.47;;
7231;SDS011;3657;49.630;11.018;2022-07-29T05:57:27;5.33;;;5.03;;
7231;SDS011;3657;49.630;11.018;2022-07-29T05:59:54;5.33;;;5.07;;
7231;SDS011;3657;49.630;11.018;2022-07-29T06:02:21;4.33;;;4.13;;
7231;SDS011;3657;49.630;11.018;2022-07-29T06:04:48;5.33;;;5.13;;
7231;SDS011;3657;49.630;11.018;2022-07-29T06:07:15;5.13;;;4.80;;
7231;SDS011;3657;49.630;11.018;2022-07-29T06:09:42;5.10;;;4.90;;
7231;SDS011;3657;49.630;11.018;2022-07-29T06:12:10;5.20;;;5.10;;
7231;SDS011;3657;49.630;11.018;2022-07-29T06:14:36;4.30;;;4.17;;
7231;SDS011;3657;49.630;11.018;2022-07-29T06:17:03;5.57;;;5.27;;
7231;SDS011;3657;49.630;11.018;2022-07-29T06:19:31;5.30;;;5.10;;
7231;SDS011;3657;49.630;11.018;2022-07-29T06:21:59;4.60;;;4.43;;
7231;SDS011;3657;49.630;11.018;2022-07-29T06:24:26;4.47;;;4.27;;
7231;SDS011;3657;49.630;11.018;2022-07-29T06:26:53;4.87;;;4.63;;
7231;SDS011;3657;49.630;11.018;2022-07-29T06:29:21;4.83;;;4.73;;
7231;SDS011;3657;49.630;11.018;2022-07-29T06:31:48;4.33;;;4.20;;
7231;SDS011;3657;49.630;11.018;2022-07-29T06:34:14;5.13;;;5.03;;
7231;SDS011;3657;49.630;11.018;2022-07-29T06:36:41;5.13;;;4.80;;
7231;SDS011;3657;49.630;11.018;2022-07-29T06:39:08;5.80;;;5.60;;
7231;SDS011;3657;49.630;11.018;2022-07-29T06:41:35;4.90;;;4.80;;
7231;SDS011;3657;49.630;11.018;2022-07-29T06:44:01;4.67;;;4.47;;
7231;SDS011;3657;49.630;11.018;2022-07-29T06:46:30;4.50;;;4.17;;
7231;SDS011;3657;49.630;11.018;2022-07-29T06:48:57;5.30;;;5.00;;
7231;SDS011;3657;49.630;11.018;2022-07-29T06:51:26;5.93;;;5.70;;
7231;SDS011;3657;49.630;11.018;2022-07-29T06:53:53;5.57;;;5.37;;
7231;SDS011;3657;49.630;11.018;2022-07-29T06:56:20;5.60;;;5.40;;
7231;SDS011;3657;49.630;11.018;2022-07-29T06:58:47;5.13;;;5.00;;
7231;SDS011;3657;49.630;11.018;2022-07-29T07:01:13;6.00;;;5.70;;
7231;SDS011;3657;49.630;11.018;2022-07-29T07:03:41;4.63;;;4.33;;
7231;SDS011;3657;49.630;11.018;2022-07-29T07:06:08;5.37;;;5.27;;
7231;SDS011;3657;49.630;11.018;2022-07-29T07:08:35;4.80;;;4.53;;
7231;SDS011;3657;49.630;11.018;2022-07-29T07:11:01;5.63;;;5.43;;
7231;SDS011;3657;49.630;11.018;2022-07-29T07:13:28;5.03;;;4.83;;
7231;SDS011;3657;49.630;11.018;2022-07-29T07:15:59;6.37;;;6.00;;
7231;SDS011;3657;49.630;11.018;2022-07-29T07:18:26;4.90;;;4.70;;
7231;SDS011;3657;49.630;11.018;2022-07-29T07:20:55;5.50;;;5.20;;
7231;SDS011;3657;49.630;11.018;2022-07-29T07:23:22;4.97;;;4.77;;
7231;SDS011;3657;49.630;11.018;2022-07-29T07:25:49;5.40;;;5.20;;
7231;SDS011;3657;49.630;11.018;2022-07-29T07:28:16;5.43;;;5.23;;
7231;SDS011;3657;49.630;11.018;2022-07-29T07:30:44;5.43;;;5.23;;
7231;SDS011;3657;49.630;11.018;2022-07-29T07:33:11;5.43;;;5.23;;
7231;SDS011;3657;49.630;11.018;2022-07-29T07:35:38;6.87;;;6.60;;
7231;SDS011;3657;49.630;11.018;2022-07-29T07:38:06;5.20;;;5.00;;
7231;SDS011;3657;49.630;11.018;2022-07-29T07:40:33;6.23;;;5.80;;
7231;SDS011;3657;49.630;11.018;2022-07-29T07:43:00;5.10;;;4.80;;
7231;SDS011;3657;49.630;11.018;2022-07-29T07:45:27;4.50;;;4.40;;
7231;SDS011;3657;49.630;11.018;2022-07-29T07:47:53;6.10;;;5.87;;
7231;SDS011;3657;49.630;11.018;2022-07-29T07:50:20;5.73;;;5.53;;
7231;SDS011;3657;49.630;11.018;2022-07-29T07:52:47;6.00;;;5.70;;
7231;SDS011;3657;49.630;11.018;2022-07-29T07:55:17;6.07;;;5.77;;
7231;SDS011;3657;49.630;11.018;2022-07-29T07:57:44;6.47;;;6.00;;
7231;SDS011;3657;49.630;11.018;2022-07-29T08:00:12;5.30;;;5.10;;
7231;SDS011;3657;49.630;11.018;2022-07-29T08:02:39;6.17;;;5.93;;
7231;SDS011;3657;49.630;11.018;2022-07-29T08:05:07;5.53;;;5.33;;
7231;SDS011;3657;49.630;11.018;2022-07-29T08:07:35;6.63;;;6.43;;
7231;SDS011;3657;49.630;11.018;2022-07-29T08:10:02;4.23;;;4.13;;
7231;SDS011;3657;49.630;11.018;2022-07-29T08:12:30;5.43;;;4.93;;
7231;SDS011;3657;49.630;11.018;2022-07-29T08:14:57;5.47;;;5.27;;
7231;SDS011;3657;49.630;11.018;2022-07-29T08:17:24;6.33;;;5.83;;
7231;SDS011;3657;49.630;11.018;2022-07-29T08:19:51;5.40;;;5.20;;
7231;SDS011;3657;49.630;11.018;2022-07-29T08:22:18;5.07;;;4.73;;
7231;SDS011;3657;49.630;11.018;2022-07-29T08:24:44;5.13;;;4.97;;
7231;SDS011;3657;49.630;11.018;2022-07-29T08:27:17;5.13;;;4.93;;
7231;SDS011;3657;49.630;11.018;2022-07-29T08:29:45;5.60;;;5.40;;
7231;SDS011;3657;49.630;11.018;2022-07-29T08:32:12;5.73;;;5.53;;
7231;SDS011;3657;49.630;11.018;2022-07-29T08:34:39;5.40;;;5.20;;
7231;SDS011;3657;49.630;11.018;2022-07-29T08:37:06;6.20;;;5.90;;
7231;SDS011;3657;49.630;11.018;2022-07-29T08:39:33;5.23;;;4.97;;
7231;SDS011;3657;49.630;11.018;2022-07-29T08:41:59;5.60;;;5.30;;
7231;SDS011;3657;49.630;11.018;2022-07-29T08:44:26;6.40;;;6.17;;
7231;SDS011;3657;49.630;11.018;2022-07-29T08:46:54;5.33;;;5.13;;
7231;SDS011;3657;49.630;11.018;2022-07-29T08:49:21;6.00;;;5.80;;
7231;SDS011;3657;49.630;11.018;2022-07-29T08:51:48;5.20;;;5.00;;
7231;SDS011;3657;49.630;11.018;2022-07-29T08:54:16;4.73;;;4.53;;
7231;SDS011;3657;49.630;11.018;2022-07-29T08:56:44;4.93;;;4.83;;
7231;SDS011;3657;49.630;11.018;2022-07-29T08:59:14;6.77;;;6.43;;
7231;SDS011;3657;49.630;11.018;2022-07-29T09:01:41;5.30;;;5.10;;
7231;SDS011;3657;49.630;11.018;2022-07-29T09:04:12;6.10;;;5.80;;
7231;SDS011;3657;49.630;11.018;2022-07-29T09:06:42;6.53;;;6.33;;
7231;SDS011;3657;49.630;11.018;2022-07-29T09:09:10;5.73;;;5.53;;
7231;SDS011;3657;49.630;11.018;2022-07-29T09:11:38;6.53;;;6.33;;
7231;SDS011;3657;49.630;11.018;2022-07-29T09:14:05;5.87;;;5.67;;
7231;SDS011;3657;49.630;11.018;2022-07-29T09:16:45;6.13;;;5.93;;
7231;SDS011;3657;49.630;11.018;2022-07-29T09:19:20;5.57;;;5.37;;
7231;SDS011;3657;49.630;11.018;2022-07-29T09:21:48;6.40;;;6.20;;
7231;SDS011;3657;49.630;11.018;2022-07-29T09:24:24;5.50;;;5.40;;
7231;SDS011;3657;49.630;11.018;2022-07-29T09:27:04;6.87;;;6.67;;
7231;SDS011;3657;49.630;11.018;2022-07-29T09:29:37;5.77;;;5.57;;
7231;SDS011;3657;49.630;11.018;2022-07-29T09:32:06;6.97;;;6.77;;
7231;SDS011;3657;49.630;11.018;2022-07-29T09:34:36;5.77;;;5.47;;
7231;SDS011;3657;49.630;11.018;2022-07-29T09:37:03;6.00;;;5.70;;
7231;SDS011;3657;49.630;11.018;2022-07-29T09:39:31;7.33;;;7.10;;
7231;SDS011;3657;49.630;11.018;2022-07-29T09:41:59;6.30;;;6.20;;
7231;SDS011;3657;49.630;11.018;2022-07-29T09:44:40;6.30;;;5.90;;
7231;SDS011;3657;49.630;11.018;2022-07-29T09:47:07;7.07;;;6.60;;
7231;SDS011;3657;49.630;11.018;2022-07-29T09:49:36;6.20;;;6.00;;
7231;SDS011;3657;49.630;11.018;2022-07-29T09:52:17;6.00;;;5.80;;
7231;SDS011;3657;49.630;11.018;2022-07-29T09:54:44;6.53;;;6.27;;
7231;SDS011;3657;49.630;11.018;2022-07-29T09:57:21;6.13;;;5.93;;
7231;SDS011;3657;49.630;11.018;2022-07-29T09:59:55;8.40;;;8.00;;
7231;SDS011;3657;49.630;11.018;2022-07-29T10:02:24;6.50;;;6.30;;
7231;SDS011;3657;49.630;11.018;2022-07-29T10:04:56;6.50;;;6.30;;
7231;SDS011;3657;49.630;11.018;2022-07-29T10:07:22;6.87;;;6.60;;
7231;SDS011;3657;49.630;11.018;2022-07-29T10:09:52;6.77;;;6.57;;
7231;SDS011;3657;49.630;11.018;2022-07-29T10:12:20;6.73;;;6.40;;
7231;SDS011;3657;49.630;11.018;2022-07-29T10:14:47;6.53;;;6.17;;
7231;SDS011;3657;49.630;11.018;2022-07-29T10:17:14;6.43;;;6.23;;
7231;SDS011;3657;49.630;11.018;2022-07-29T10:19:42;7.23;;;6.83;;
7231;SDS011;3657;49.630;11.018;2022-07-29T10:22:10;6.72;;;6.53;;
7231;SDS011;3657;49.630;11.018;2022-07-29T10:24:37;6.40;;;6.23;;
7231;SDS011;3657;49.630;11.018;2022-07-29T10:27:06;6.07;;;5.80;;
7231;SDS011;3657;49.630;11.018;2022-07-29T10:29:34;6.82;;;6.57;;
7231;SDS011;3657;49.630;11.018;2022-07-29T10:32:14;6.03;;;5.80;;
7231;SDS011;3657;49.630;11.018;2022-07-29T10:34:53;7.50;;;7.30;;
7231;SDS011;3657;49.630;11.018;2022-07-29T10:37:36;6.50;;;6.30;;
7231;SDS011;3657;49.630;11.018;2022-07-29T10:40:15;6.85;;;6.55;;
7231;SDS011;3657;49.630;11.018;2022-07-29T10:43:15;7.82;;;7.63;;
7231;SDS011;3657;49.630;11.018;2022-07-29T10:45:45;7.32;;;7.13;;
7231;SDS011;3657;49.630;11.018;2022-07-29T10:48:13;7.25;;;6.95;;
7231;SDS011;3657;49.630;11.018;2022-07-29T10:50:53;7.00;;;6.70;;
7231;SDS011;3657;49.630;11.018;2022-07-29T10:53:22;7.47;;;7.18;;
7231;SDS011;3657;49.630;11.018;2022-07-29T10:55:49;6.70;;;6.40;;
7231;SDS011;3657;49.630;11.018;2022-07-29T10:58:17;7.90;;;7.70;;
7231;SDS011;3657;49.630;11.018;2022-07-29T11:00:45;7.03;;;6.82;;
7231;SDS011;3657;49.630;11.018;2022-07-29T11:06:12;6.90;;;6.70;;
7231;SDS011;3657;49.630;11.018;2022-07-29T11:08:41;6.57;;;6.20;;
7231;SDS011;3657;49.630;11.018;2022-07-29T11:14:05;7.20;;;7.00;;
7231;SDS011;3657;49.630;11.018;2022-07-29T11:19:28;7.13;;;6.85;;
7231;SDS011;3657;49.630;11.018;2022-07-29T11:21:55;8.15;;;7.60;;
7231;SDS011;3657;49.630;11.018;2022-07-29T11:24:25;7.07;;;6.80;;
7231;SDS011;3657;49.630;11.018;2022-07-29T11:27:06;7.45;;;7.25;;
7231;SDS011;3657;49.630;11.018;2022-07-29T11:29:47;8.52;;;8.32;;
7231;SDS011;3657;49.630;11.018;2022-07-29T11:32:16;7.97;;;7.68;;
7231;SDS011;3657;49.630;11.018;2022-07-29T11:34:45;9.55;;;9.10;;
7231;SDS011;3657;49.630;11.018;2022-07-29T11:37:19;8.13;;;7.93;;
7231;SDS011;3657;49.630;11.018;2022-07-29T11:40:08;8.38;;;8.02;;
7231;SDS011;3657;49.630;11.018;2022-07-29T11:42:41;9.20;;;8.90;;
7231;SDS011;3657;49.630;11.018;2022-07-29T11:45:11;9.43;;;9.20;;
7231;SDS011;3657;49.630;11.018;2022-07-29T11:47:40;9.35;;;9.15;;
7231;SDS011;3657;49.630;11.018;2022-07-29T11:50:09;10.00;;;9.70;;
7231;SDS011;3657;49.630;11.018;2022-07-29T11:52:37;9.48;;;9.18;;
7231;SDS011;3657;49.630;11.018;2022-07-29T11:55:11;8.93;;;8.63;;
7231;SDS011;3657;49.630;11.018;2022-07-29T11:57:45;9.77;;;9.18;;
7231;SDS011;3657;49.630;11.018;2022-07-29T12:00:20;7.93;;;7.72;;
7231;SDS011;3657;49.630;11.018;2022-07-29T12:02:48;7.60;;;7.40;;
7231;SDS011;3657;49.630;11.018;2022-07-29T12:05:15;7.72;;;7.53;;
7231;SDS011;3657;49.630;11.018;2022-07-29T12:07:43;8.38;;;8.13;;
7231;SDS011;3657;49.630;11.018;2022-07-29T12:10:11;8.07;;;7.78;;
7231;SDS011;3657;49.630;11.018;2022-07-29T12:12:38;9.30;;;8.90;;
7231;SDS011;3657;49.630;11.018;2022-07-29T12:15:12;8.65;;;8.35;;
7231;SDS011;3657;49.630;11.018;2022-07-29T12:17:40;7.82;;;7.63;;
7231;SDS011;3657;49.630;11.018;2022-07-29T12:20:07;7.75;;;7.55;;
7231;SDS011;3657;49.630;11.018;2022-07-29T12:22:34;9.35;;;8.98;;
7231;SDS011;3657;49.630;11.018;2022-07-29T12:25:05;7.47;;;7.28;;
7231;SDS011;3657;49.630;11.018;2022-07-29T12:27:35;8.43;;;8.13;;
7231;SDS011;3657;49.630;11.018;2022-07-29T12:30:03;6.90;;;6.70;;
7231;SDS011;3657;49.630;11.018;2022-07-29T12:32:32;7.03;;;6.82;;
7231;SDS011;3657;49.630;11.018;2022-07-29T12:35:02;7.60;;;7.40;;
7231;SDS011;3657;49.630;11.018;2022-07-29T12:37:30;7.60;;;7.30;;
7231;SDS011;3657;49.630;11.018;2022-07-29T12:39:58;7.88;;;7.55;;
7231;SDS011;3657;49.630;11.018;2022-07-29T12:42:25;7.20;;;6.90;;
7231;SDS011;3657;49.630;11.018;2022-07-29T12:44:53;7.00;;;6.70;;
7231;SDS011;3657;49.630;11.018;2022-07-29T12:47:20;8.05;;;7.70;;
7231;SDS011;3657;49.630;11.018;2022-07-29T12:49:47;6.85;;;6.65;;
7231;SDS011;3657;49.630;11.018;2022-07-29T12:52:28;8.18;;;7.82;;
7231;SDS011;3657;49.630;11.018;2022-07-29T12:54:57;6.93;;;6.72;;
7231;SDS011;3657;49.630;11.018;2022-07-29T12:57:24;7.35;;;7.15;;
7231;SDS011;3657;49.630;11.018;2022-07-29T13:00:03;8.00;;;7.70;;
7231;SDS011;3657;49.630;11.018;2022-07-29T13:02:34;7.75;;;7.45;;
7231;SDS011;3657;49.630;11.018;2022-07-29T13:05:01;6.68;;;6.47;;
7231;SDS011;3657;49.630;11.018;2022-07-29T13:07:29;6.65;;;6.45;;
7231;SDS011;3657;49.630;11.018;2022-07-29T13:10:09;6.55;;;6.35;;
7231;SDS011;3657;49.630;11.018;2022-07-29T13:12:37;7.63;;;7.32;;
7231;SDS011;3657;49.630;11.018;2022-07-29T13:15:14;6.97;;;6.78;;
7231;SDS011;3657;49.630;11.018;2022-07-29T13:17:41;6.75;;;6.50;;
7231;SDS011;3657;49.630;11.018;2022-07-29T13:20:09;6.57;;;6.38;;
7231;SDS011;3657;49.630;11.018;2022-07-29T13:22:39;6.07;;;5.82;;
7231;SDS011;3657;49.630;11.018;2022-07-29T13:25:07;6.70;;;6.50;;
7231;SDS011;3657;49.630;11.018;2022-07-29T13:27:37;6.40;;;6.20;;
7231;SDS011;3657;49.630;11.018;2022-07-29T13:30:05;6.97;;;6.78;;
7231;SDS011;3657;49.630;11.018;2022-07-29T13:32:35;6.82;;;6.63;;
7231;SDS011;3657;49.630;11.018;2022-07-29T13:35:03;6.80;;;6.60;;
7231;SDS011;3657;49.630;11.018;2022-07-29T13:37:32;7.50;;;7.20;;
7231;SDS011;3657;49.630;11.018;2022-07-29T13:40:00;7.10;;;6.75;;
7231;SDS011;3657;49.630;11.018;2022-07-29T13:42:28;6.57;;;6.38;;
7231;SDS011;3657;49.630;11.018;2022-07-29T13:44:54;7.93;;;7.53;;
7231;SDS011;3657;49.630;11.018;2022-07-29T13:47:22;6.32;;;6.13;;
7231;SDS011;3657;49.630;11.018;2022-07-29T13:49:50;6.53;;;6.28;;
7231;SDS011;3657;49.630;11.018;2022-07-29T13:52:18;7.30;;;7.03;;
7231;SDS011;3657;49.630;11.018;2022-07-29T13:54:44;6.82;;;6.53;;
7231;SDS011;3657;49.630;11.018;2022-07-29T13:57:12;7.10;;;6.60;;
7231;SDS011;3657;49.630;11.018;2022-07-29T13:59:40;7.35;;;7.15;;
7231;SDS011;3657;49.630;11.018;2022-07-29T14:02:08;7.65;;;7.45;;
7231;SDS011;3657;49.630;11.018;2022-07-29T14:04:36;7.82;;;7.40;;
7231;SDS011;3657;49.630;11.018;2022-07-29T14:07:04;7.63;;;7.32;;
7231;SDS011;3657;49.630;11.018;2022-07-29T14:09:31;8.38;;;7.68;;
7231;SDS011;3657;49.630;11.018;2022-07-29T14:11:58;7.80;;;7.60;;
7231;SDS011;3657;49.630;11.018;2022-07-29T14:14:24;8.10;;;7.53;;
7231;SDS011;3657;49.630;11.018;2022-07-29T14:16:51;8.03;;;7.83;;
7231;SDS011;3657;49.630;11.018;2022-07-29T14:19:18;6.27;;;5.87;;
7231;SDS011;3657;49.630;11.018;2022-07-29T14:21:45;6.20;;;6.00;;
7231;SDS011;3657;49.630;11.018;2022-07-29T14:24:13;5.67;;;5.37;;
7231;SDS011;3657;49.630;11.018;2022-07-29T14:26:40;6.23;;;5.70;;
7231;SDS011;3657;49.630;11.018;2022-07-29T14:29:07;7.10;;;6.43;;
7231;SDS011;3657;49.630;11.018;2022-07-29T14:31:34;6.83;;;6.43;;
7231;SDS011;3657;49.630;11.018;2022-07-29T14:34:00;13.33;;;7.20;;
7231;SDS011;3657;49.630;11.018;2022-07-29T14:36:27;9.70;;;7.77;;
7231;SDS011;3657;49.630;11.018;2022-07-29T14:38:54;8.37;;;7.80;;
7231;SDS011;3657;49.630;11.018;2022-07-29T14:41:22;8.50;;;7.80;;
7231;SDS011;3657;49.630;11.018;2022-07-29T14:43:49;8.67;;;8.07;;
7231;SDS011;3657;49.630;11.018;2022-07-29T14:46:17;8.93;;;8.03;;
7231;SDS011;3657;49.630;11.018;2022-07-29T14:48:43;11.10;;;7.67;;
7231;SDS011;3657;49.630;11.018;2022-07-29T14:51:10;8.27;;;7.57;;
7231;SDS011;3657;49.630;11.018;2022-07-29T14:53:37;11.03;;;8.20;;
7231;SDS011;3657;49.630;11.018;2022-07-29T14:56:04;13.43;;;7.73;;
7231;SDS011;3657;49.630;11.018;2022-07-29T14:58:32;8.13;;;7.53;;
7231;SDS011;3657;49.630;11.018;2022-07-29T15:00:59;8.47;;;7.60;;
7231;SDS011;3657;49.630;11.018;2022-07-29T15:03:25;7.33;;;6.83;;
7231;SDS011;3657;49.630;11.018;2022-07-29T15:05:52;8.07;;;7.37;;
7231;SDS011;3657;49.630;11.018;2022-07-29T15:08:19;7.10;;;6.43;;
7231;SDS011;3657;49.630;11.018;2022-07-29T15:10:55;6.77;;;6.40;;
7231;SDS011;3657;49.630;11.018;2022-07-29T15:13:24;8.30;;;7.77;;
7231;SDS011;3657;49.630;11.018;2022-07-29T15:15:52;8.03;;;7.60;;
7231;SDS011;3657;49.630;11.018;2022-07-29T15:18:19;11.07;;;9.17;;
7231;SDS011;3657;49.630;11.018;2022-07-29T15:20:46;20.43;;;10.20;;